Van Tassell, WY (82242)

10:41 PM MST on November 26, 2014 (GMT -0700)
LEMS | Change Station
CLOSE
Current Station
Personal Weather Station
Location: Lusk, WY
Elevation: 5070 ft
Nearby Weather Stations

Elev 5070 ft 42.76 °N, 104.45 °W | Updated 4 minutes ago

Overcast
Overcast
24.1 °F
Feels Like 24 °F
N
2.0
Wind Variable Wind from SW
Gusts 3.0 mph

Today
High -- | Low -- °F
--% Chance of Precip.
Yesterday
High -- | Low -- °F
Precip. -- in
7:01 AM 4:25 PM
Waxing Crescent, 26% visible
Pressure 30.23 in
Visibility 9.0 miles
Clouds Scattered Clouds 100 ft
Overcast 10000 ft
Windchill 24 °F
Dew Point 21 °F
Humidity 88%
Rainfall 0.00 in
Snow Depth Not available.
UV 0 out of 12
Pollen .10 out of 12
Air Quality Not available.
Flu Activity Not available.
SPECI KTOR 270513Z AUTO 10005KT 9SM SCT001 OVC100 M04/M05 A3023 RMK AO2 T10441050

More Conditions Fewer Conditions

Pressure 30.23 in
Visibility 9.0 miles
Clouds Scattered Clouds 100 ft
Overcast 10000 ft
Windchill 24 °F
Dew Point 21 °F
Humidity 88%
Rainfall 0.00 in
Snow Depth Not available.
UV 0 out of 12
Pollen .10 out of 12
Air Quality Not available.
Flu Activity Not available.
SPECI KTOR 270513Z AUTO 10005KT 9SM SCT001 OVC100 M04/M05 A3023 RMK AO2 T10441050

More Conditions Fewer Conditions

10-Day Weather Forecast

Almanac

Astronomy

Nov. 26, 2014 Rise Set
Actual Time
Civil Twilight
Nautical Twilight
Astronomical Twilight
Moon
Length of Visible Light
Length of Day
Tomorrow will be .
, % of the Moon is Illuminated

Today's Extremes

State Highs State Lows

Community

WunderPhotos

Upload Photos

1,773,961 photos uploaded!

WunderBlogs® & News

Nearby

Air Quality

  Air Quality AQ Index Pollutant
Not available.

Snow Depth

Station Depth Elevation

Earthquake Activity

City Distance Mag. Time & Date
Minimum magnitude displayed is 2.5.

Coastal Water Temperatures

Place Temperature

Nearby Weather Stations